Time;durP1;ratioP1;P1;durP2;ratioP2;P2;SDS_P1;SDS_P2;PMS_P1;PMS_P2;Temp;Humidity;BMP_temperature;BMP_pressure;BME280_temperature;BME280_humidity;BME280_pressure;Samples;Min_cycle;Max_cycle;Signal;HPM_P1;HPM_P2
2021/12/13 00:01:19;;;;;;;8.25;4.28;;;;;;;2.80;56.84;100487.31;4390136;32;32537;-95
2021/12/13 00:04:42;;;;;;;9.68;5.28;;;;;;;2.71;57.60;100492.53;4397475;32;32334;-96
2021/12/13 00:07:40;;;;;;;9.45;4.62;;;;;;;3.11;56.21;100486.38;4372193;32;34551;-95
2021/12/13 00:10:48;;;;;;;7.35;4.00;;;;;;;2.75;57.53;100489.06;4358726;32;32931;-94
2021/12/13 00:13:43;;;;;;;10.43;4.62;;;;;;;2.87;57.30;100487.28;4353559;32;33295;-94
2021/12/13 00:16:38;;;;;;;8.65;4.28;;;;;;;2.70;57.21;100490.75;4361181;32;32369;-95
2021/12/13 00:19:22;;;;;;;10.23;4.55;;;;;;;2.60;57.98;100489.03;4377815;32;32503;-94
2021/12/13 00:22:24;;;;;;;6.53;4.18;;;;;;;3.16;56.05;100484.63;4369972;32;34414;-93
2021/12/13 00:25:09;;;;;;;7.43;3.55;;;;;;;2.97;56.19;100483.78;4392734;32;33283;-93
2021/12/13 00:28:02;;;;;;;9.10;3.90;;;;;;;3.13;55.82;100482.88;4360251;32;32201;-95
2021/12/13 00:30:53;;;;;;;7.30;4.20;;;;;;;2.83;56.83;100482.06;4400794;32;33079;-95
2021/12/13 00:33:57;;;;;;;10.52;4.53;;;;;;;2.69;57.51;100491.63;4404413;32;33136;-94
2021/12/13 00:36:47;;;;;;;7.05;3.72;;;;;;;2.94;56.71;100489.84;4403783;32;33368;-93
2021/12/13 00:39:31;;;;;;;;;;;;;;;2.40;57.88;100491.63;4375180;32;32127;-94
2021/12/13 00:42:15;;;;;;;6.47;3.65;;;;;;;2.80;57.09;100505.56;4364425;32;33148;-93
2021/12/13 00:45:09;;;;;;;9.75;3.42;;;;;;;2.98;55.82;100496.81;4382399;32;33757;-94
2021/12/13 00:47:48;;;;;;;11.15;5.07;;;;;;;3.03;56.15;100487.22;4407274;32;33679;-94
2021/12/13 00:51:06;;;;;;;10.77;4.18;;;;;;;2.97;56.28;100500.31;4392105;32;32455;-95
2021/12/13 00:54:16;;;;;;;8.50;4.03;;;;;;;2.88;56.79;100502.91;4392246;32;34329;-93
2021/12/13 00:56:59;;;;;;;8.73;4.20;;;;;;;3.02;56.32;100495.06;4381145;32;34471;-94
2021/12/13 01:00:03;;;;;;;7.95;3.90;;;;;;;2.77;57.05;100502.94;4407019;32;33644;-93
2021/12/13 01:03:06;;;;;;;10.43;5.07;;;;;;;2.53;57.94;100502.94;4409667;32;31931;-94
2021/12/13 01:06:10;;;;;;;9.65;5.00;;;;;;;2.91;56.56;100497.72;4403511;32;33759;-92
2021/12/13 01:09:30;;;;;;;9.02;4.10;;;;;;;2.79;56.89;100495.97;4406704;32;33804;-93
2021/12/13 01:12:18;;;;;;;14.38;4.00;;;;;;;2.80;56.82;100502.06;4426723;32;32974;-91
2021/12/13 01:15:36;;;;;;;12.27;4.90;;;;;;;2.28;58.18;100491.66;4390611;32;32083;-93
2021/12/13 01:18:55;;;;;;;8.32;3.95;;;;;;;2.65;57.65;100489.91;4397309;32;33506;-93
2021/12/13 01:21:54;;;;;;;6.80;3.50;;;;;;;2.41;58.34;100505.53;4385338;32;32770;-93
2021/12/13 01:25:17;;;;;;;13.05;3.87;;;;;;;2.65;57.32;100507.28;4386905;32;33576;-95
2021/12/13 01:28:02;;;;;;;7.97;4.93;;;;;;;2.46;58.17;100514.22;4357510;32;33981;-94
2021/12/13 01:30:47;;;;;;;7.60;4.00;;;;;;;2.72;57.04;100509.03;4369107;32;34403;-96
2021/12/13 01:33:44;;;;;;;8.77;4.07;;;;;;;2.68;57.37;100505.56;4377800;32;34406;-95
2021/12/13 01:40:52;;;;;;;7.62;4.25;;;;;;;2.47;57.55;100521.16;4384598;32;34189;-95
2021/12/13 01:43:51;;;;;;;14.13;4.40;;;;;;;2.97;56.22;100510.75;4356554;32;32224;-94
2021/12/13 01:46:36;;;;;;;10.73;4.20;;;;;;;2.65;56.94;100515.09;4412261;32;33352;-94
2021/12/13 01:49:30;;;;;;;11.07;4.68;;;;;;;2.48;57.62;100520.34;4364713;32;32887;-95
2021/12/13 01:52:22;;;;;;;10.27;3.83;;;;;;;2.63;56.89;100516.84;4371830;32;32868;-96
2021/12/13 01:55:32;;;;;;;9.15;4.68;;;;;;;2.73;56.58;100522.06;4387505;32;34520;-96
2021/12/13 02:01:22;;;;;;;6.78;3.53;;;;;;;2.93;55.78;100523.78;4364256;32;33254;-94
2021/12/13 02:04:15;;;;;;;12.30;4.87;;;;;;;2.89;55.94;100514.22;4391752;32;32114;-94
2021/12/13 02:07:01;;;;;;;10.10;4.78;;;;;;;2.56;56.83;100518.56;4354077;32;32214;-90
2021/12/13 02:09:50;;;;;;;9.05;5.00;;;;;;;2.66;56.80;100522.94;4353324;32;33649;-90
2021/12/13 02:12:42;;;;;;;8.15;4.03;;;;;;;2.98;55.80;100509.00;4354131;32;32570;-91
2021/12/13 02:18:40;;;;;;;7.75;4.40;;;;;;;2.87;56.02;100518.59;4372748;32;32562;-90
2021/12/13 02:21:35;;;;;;;10.38;4.15;;;;;;;2.61;56.49;100529.00;4350677;32;32669;-93
2021/12/13 02:24:15;;;;;;;10.90;4.97;;;;;;;2.39;57.64;100523.78;4362176;32;33750;-92
2021/12/13 02:26:58;;;;;;;8.77;4.32;;;;;;;3.08;55.45;100524.63;4368069;32;33313;-93
2021/12/13 02:29:42;;;;;;;7.60;4.60;;;;;;;2.89;56.10;100532.47;4361911;32;33033;-92
2021/12/13 02:32:35;;;;;;;9.52;4.55;;;;;;;2.98;55.80;100529.88;4350912;32;32762;-91
2021/12/13 02:35:06;;;;;;;9.05;4.35;;;;;;;3.14;54.85;100531.59;4358874;32;33959;-91
2021/12/13 02:37:39;;;;;;;9.27;4.50;;;;;;;3.13;55.08;100527.22;4372733;32;33394;-90
2021/12/13 02:40:09;;;;;;;7.78;3.80;;;;;;;2.89;55.74;100529.88;4358167;32;34114;-90
2021/12/13 02:42:37;;;;;;;7.18;3.47;;;;;;;2.85;55.74;100536.84;4339564;32;32393;-93
2021/12/13 02:45:26;;;;;;;12.15;4.95;;;;;;;3.06;55.07;100542.03;4396888;32;32700;-93
2021/12/13 02:48:23;;;;;;;9.98;4.35;;;;;;;3.23;54.63;100528.06;4371840;32;32822;-91
2021/12/13 02:51:21;;;;;;;8.43;4.72;;;;;;;2.76;55.98;100539.47;4383903;32;33155;-94
2021/12/13 02:54:36;;;;;;;7.37;4.00;;;;;;;2.69;56.35;100541.19;4407126;32;33152;-93
2021/12/13 02:57:36;;;;;;;7.90;4.53;;;;;;;2.58;56.97;100529.03;4360068;32;32705;-93
2021/12/13 03:00:25;;;;;;;7.03;4.28;;;;;;;2.63;56.86;100535.97;4388498;32;31813;-89
2021/12/13 03:03:05;;;;;;;10.15;4.12;;;;;;;2.83;56.32;100535.97;4387762;32;32397;-91
2021/12/13 03:05:49;;;;;;;7.62;5.15;;;;;;;2.90;55.75;100534.25;4379828;32;32752;-91
2021/12/13 03:08:45;;;;;;;9.43;4.20;;;;;;;2.70;55.93;100534.22;4336005;33;33552;-91
2021/12/13 03:11:30;;;;;;;9.10;4.30;;;;;;;2.73;56.07;100532.50;4330706;33;20788;-91
2021/12/13 03:14:10;;;;;;;11.43;4.70;;;;;;;2.51;56.50;100530.75;4337345;33;32883;-91
2021/12/13 03:21:44;;;;;;;7.75;3.70;;;;;;;2.73;56.31;100527.28;4367106;32;34769;-93
2021/12/13 03:28:49;;;;;;;10.40;4.60;;;;;;;2.51;56.71;100525.53;4357176;32;34913;-93
2021/12/13 03:31:44;;;;;;;9.82;4.75;;;;;;;2.68;56.48;100518.59;4341021;32;33050;-94
2021/12/13 03:34:33;;;;;;;7.95;3.75;;;;;;;2.16;57.65;100517.69;4376854;32;33442;-94
2021/12/13 03:37:25;;;;;;;8.95;4.43;;;;;;;2.37;57.78;100522.91;4361985;32;31530;-91
2021/12/13 03:40:18;;;;;;;10.45;5.22;;;;;;;2.11;58.17;100522.88;4382113;32;33131;-96
2021/12/13 03:43:14;;;;;;;10.52;4.97;;;;;;;2.47;57.39;100521.16;4388047;32;33661;-93
2021/12/13 03:45:57;;;;;;;13.55;6.40;;;;;;;2.39;57.66;100530.75;4377426;32;33732;-92
2021/12/13 03:48:52;;;;;;;10.63;5.82;;;;;;;2.19;57.75;100531.59;4356718;32;32755;-94
2021/12/13 03:51:35;;;;;;;9.57;4.93;;;;;;;2.39;57.66;100541.16;4393516;32;33025;-94
2021/12/13 03:54:28;;;;;;;9.20;4.87;;;;;;;2.62;56.84;100539.47;4364645;32;33583;-93
2021/12/13 03:57:08;;;;;;;10.82;5.93;;;;;;;2.25;57.76;100543.75;4382331;32;33532;-92
2021/12/13 04:00:04;;;;;;;11.27;5.30;;;;;;;2.10;58.72;100544.59;4376127;32;32250;-92
2021/12/13 04:02:38;;;;;;;11.77;5.45;;;;;;;2.40;57.61;100537.69;4367122;32;34052;-92
2021/12/13 04:05:30;;;;;;;9.00;5.68;;;;;;;2.52;57.42;100545.53;4344716;32;32860;-92
2021/12/13 04:08:12;;;;;;;9.80;4.78;;;;;;;2.41;57.62;100547.25;4352322;32;32656;-92
2021/12/13 04:11:07;;;;;;;14.52;5.62;;;;;;;2.52;57.35;100550.75;4390324;32;32543;-91
2021/12/13 04:13:52;;;;;;;8.40;5.00;;;;;;;2.48;57.65;100546.41;4351913;32;32978;-91
2021/12/13 04:17:06;;;;;;;9.57;5.35;;;;;;;2.59;57.58;100560.31;4343431;32;33189;-91
2021/12/13 04:20:05;;;;;;;12.20;6.53;;;;;;;2.33;57.77;100551.56;4343637;32;33207;-92
2021/12/13 04:23:06;;;;;;;9.35;5.35;;;;;;;2.37;58.18;100554.19;4384564;32;32741;-94
2021/12/13 04:25:48;;;;;;;12.73;4.87;;;;;;;2.41;57.90;100549.84;4396869;32;34348;-92
2021/12/13 04:28:44;;;;;;;8.95;5.20;;;;;;;2.21;58.40;100553.28;4346842;33;33926;-92
2021/12/13 04:31:28;;;;;;;12.18;5.68;;;;;;;2.47;57.82;100555.06;4389835;32;33855;-92
2021/12/13 04:34:27;;;;;;;13.73;6.15;;;;;;;2.59;57.42;100555.09;4338575;33;32454;-91
2021/12/13 04:37:10;;;;;;;8.63;5.18;;;;;;;2.52;57.40;100558.56;4370955;32;34139;-95
2021/12/13 04:40:12;;;;;;;11.30;5.95;;;;;;;2.25;58.22;100554.19;4372384;32;33344;-93
2021/12/13 04:43:14;;;;;;;12.13;6.55;;;;;;;2.31;57.95;100552.44;4348786;32;33065;-94
2021/12/13 04:46:06;;;;;;;10.48;5.62;;;;;;;2.25;58.27;100554.19;4332709;33;33012;-89
2021/12/13 04:48:57;;;;;;;8.98;5.57;;;;;;;2.40;57.84;100553.31;4338963;33;33177;-89
2021/12/13 04:51:44;;;;;;;14.35;5.78;;;;;;;2.49;57.89;100555.94;4350889;32;34231;-89
2021/12/13 04:54:34;;;;;;;11.77;6.55;;;;;;;2.17;58.70;100554.16;4337458;33;32840;-90
2021/12/13 04:57:05;;;;;;;12.23;5.75;;;;;;;2.36;58.21;100552.44;4350722;32;31903;-90
2021/12/13 04:59:50;;;;;;;9.98;5.28;;;;;;;2.39;58.05;100555.06;4363760;32;33150;-89
2021/12/13 05:02:55;;;;;;;10.77;5.82;;;;;;;2.22;58.77;100560.22;4365150;32;32420;-90
2021/12/13 05:05:36;;;;;;;15.93;7.03;;;;;;;1.90;59.85;100557.56;4363502;32;32797;-92
2021/12/13 05:08:38;;;;;;;14.05;6.85;;;;;;;2.14;59.33;100567.19;4301923;33;32995;-91
2021/12/13 05:11:18;;;;;;;13.82;6.43;;;;;;;2.41;58.59;100560.28;4387966;32;32468;-91
2021/12/13 05:14:43;;;;;;;11.80;5.78;;;;;;;2.16;59.70;100570.66;4355897;32;32871;-91
2021/12/13 05:17:33;;;;;;;12.35;6.05;;;;;;;2.28;59.32;100570.69;4386276;32;33015;-94
2021/12/13 05:20:37;;;;;;;16.70;6.53;;;;;;;2.20;59.57;100577.62;4319559;33;32083;-92
2021/12/13 05:23:21;;;;;;;13.80;6.53;;;;;;;2.21;59.67;100574.12;4393168;32;33377;-96
2021/12/13 05:26:14;;;;;;;13.90;6.22;;;;;;;1.86;60.66;100591.41;4401688;32;33595;-96
2021/12/13 05:28:53;;;;;;;10.40;5.87;;;;;;;1.94;60.43;100587.06;4357171;32;33300;-96
2021/12/13 05:31:52;;;;;;;14.05;7.22;;;;;;;1.84;61.19;100598.31;4332359;33;33320;-96
2021/12/13 05:34:44;;;;;;;19.85;9.25;;;;;;;2.12;60.88;100591.47;4333547;33;32876;-96
2021/12/13 05:37:50;;;;;;;19.62;8.52;;;;;;;1.97;61.21;100594.91;4346724;33;32729;-93
2021/12/13 05:40:44;;;;;;;17.60;9.35;;;;;;;2.12;60.64;100592.34;4320214;33;32903;-94
2021/12/13 05:43:48;;;;;;;18.90;8.15;;;;;;;2.23;60.35;100593.28;4345976;32;32654;-95
2021/12/13 05:46:40;;;;;;;21.85;8.43;;;;;;;1.82;61.58;100600.91;4321575;33;33970;-92
2021/12/13 05:49:33;;;;;;;;;;;;;;;1.90;61.19;100596.63;4354212;32;33386;-92
2021/12/13 05:52:35;;;;;;;14.15;6.85;;;;;;;1.92;61.45;100605.31;4385311;32;33021;-91
2021/12/13 05:56:07;;;;;;;15.15;7.40;;;;;;;1.92;61.35;100607.91;4376459;32;33406;-90
2021/12/13 05:58:55;;;;;;;17.87;7.93;;;;;;;1.98;61.20;100613.13;4339656;32;33775;-90
2021/12/13 06:02:02;;;;;;;17.20;8.75;;;;;;;1.64;62.32;100606.91;4321200;33;33259;-90
2021/12/13 06:05:01;;;;;;;15.82;7.65;;;;;;;1.76;62.34;100614.78;4368626;32;32650;-91
2021/12/13 06:07:35;;;;;;;16.92;8.13;;;;;;;1.83;62.54;100614.81;4372002;32;32352;-91
2021/12/13 06:10:36;;;;;;;19.20;8.73;;;;;;;2.00;61.74;100610.56;4368348;32;33732;-90
2021/12/13 06:13:18;;;;;;;19.23;9.05;;;;;;;2.10;61.57;100614.94;4378576;32;32658;-90
2021/12/13 06:15:57;;;;;;;15.10;8.00;;;;;;;1.93;62.24;100619.19;4391255;32;33144;-90
2021/12/13 06:18:36;;;;;;;22.83;10.23;;;;;;;2.31;60.96;100617.59;4390837;32;33600;-90
2021/12/13 06:21:38;;;;;;;14.68;7.10;;;;;;;1.98;61.68;100612.25;4378451;32;32939;-90
2021/12/13 06:24:07;;;;;;;17.83;9.05;;;;;;;2.17;61.11;100624.50;4378771;32;32848;-90
2021/12/13 06:26:38;;;;;;;23.27;11.02;;;;;;;1.81;62.46;100629.56;4378406;32;32685;-90
2021/12/13 06:29:08;;;;;;;16.52;8.57;;;;;;;2.09;61.53;100631.44;4391077;32;33403;-90
2021/12/13 06:31:42;;;;;;;17.27;9.30;;;;;;;2.19;61.12;100632.34;4380467;32;33207;-90
2021/12/13 06:34:14;;;;;;;21.52;9.15;;;;;;;2.00;61.95;100629.66;4393901;32;33063;-91
2021/12/13 06:37:00;;;;;;;16.60;8.75;;;;;;;1.90;62.39;100635.69;4391059;32;33783;-90
2021/12/13 06:39:32;;;;;;;21.70;9.00;;;;;;;2.00;62.45;100642.69;4391196;32;32558;-91
2021/12/13 06:42:25;;;;;;;18.05;9.13;;;;;;;2.14;61.87;100637.53;4390382;32;34165;-89
2021/12/13 06:44:53;;;;;;;22.20;10.80;;;;;;;2.10;62.51;100638.38;4390339;32;34368;-89
2021/12/13 06:47:22;;;;;;;22.50;9.95;;;;;;;2.28;61.94;100643.66;4377830;32;34589;-89
2021/12/13 06:49:57;;;;;;;19.42;8.85;;;;;;;2.25;62.14;100643.63;4379844;32;32649;-89
2021/12/13 06:52:32;;;;;;;18.60;8.85;;;;;;;2.15;62.51;100638.41;4377651;32;32065;-89
2021/12/13 06:55:12;;;;;;;17.08;8.95;;;;;;;1.97;63.21;100647.00;4390710;32;33910;-90
2021/12/13 06:57:54;;;;;;;20.90;10.20;;;;;;;2.38;62.15;100643.69;4378350;32;33039;-92
2021/12/13 07:00:37;;;;;;;22.90;9.85;;;;;;;2.26;62.08;100641.91;4337072;33;33867;-93
2021/12/13 07:03:34;;;;;;;20.50;9.02;;;;;;;2.38;62.02;100643.69;4339964;33;34333;-93
2021/12/13 07:06:18;;;;;;;19.83;10.07;;;;;;;2.11;63.01;100647.94;4321122;33;33739;-93
2021/12/13 07:09:16;;;;;;;16.95;9.43;;;;;;;2.29;63.07;100652.34;4361547;32;32181;-91
2021/12/13 07:11:57;;;;;;;20.85;10.50;;;;;;;2.36;62.89;100648.00;4381475;32;32379;-90
2021/12/13 07:14:49;;;;;;;17.95;9.55;;;;;;;2.78;61.78;100650.72;4361549;32;33407;-91
2021/12/13 07:17:34;;;;;;;19.42;9.35;;;;;;;2.66;62.02;100650.72;4353272;32;32922;-90
2021/12/13 07:20:43;;;;;;;22.45;10.15;;;;;;;2.76;61.54;100657.69;4353820;32;33030;-89
2021/12/13 07:23:55;;;;;;;26.27;11.40;;;;;;;2.58;62.47;100652.44;4370902;32;32354;-88
2021/12/13 07:30:33;;;;;;;20.67;9.65;;;;;;;2.73;62.18;100654.19;4373629;32;33428;-92
2021/12/13 07:33:43;;;;;;;19.75;10.05;;;;;;;2.88;62.33;100656.81;4353389;32;33353;-90
2021/12/13 07:36:20;;;;;;;19.42;9.50;;;;;;;3.03;61.86;100655.97;4368640;32;32663;-95
2021/12/13 07:40:04;;;;;;;16.75;8.98;;;;;;;3.30;61.27;100653.34;4328498;33;32769;-94
2021/12/13 07:43:02;;;;;;;18.83;9.37;;;;;;;3.27;61.52;100663.78;4369710;32;33664;-95
2021/12/13 07:46:25;;;;;;;17.20;8.13;;;;;;;3.24;61.85;100661.19;4366117;32;34408;-94
2021/12/13 07:49:08;;;;;;;15.20;8.35;;;;;;;2.99;62.74;100659.44;4336447;33;32386;-93
2021/12/13 07:52:02;;;;;;;16.90;8.68;;;;;;;3.42;61.88;100667.25;4324539;33;34015;-94
2021/12/13 07:54:42;;;;;;;17.92;9.35;;;;;;;3.63;61.14;100669.88;4321291;33;33130;-94
2021/12/13 07:57:33;;;;;;;19.05;9.32;;;;;;;3.63;61.11;100669.88;4349700;32;32438;-94
2021/12/13 08:00:25;;;;;;;21.52;9.32;;;;;;;3.60;61.54;100669.84;4362451;32;33089;-94
2021/12/13 08:03:21;;;;;;;;;;;;;;;4.03;60.18;100668.00;4381857;32;32252;-94
2021/12/13 08:06:06;;;;;;;18.92;9.80;;;;;;;3.51;62.03;100678.59;4373546;32;33976;-94
2021/12/13 08:09:02;;;;;;;14.43;7.93;;;;;;;3.82;61.03;100681.16;4350330;32;32970;-96
2021/12/13 08:12:01;;;;;;;23.00;10.02;;;;;;;3.73;61.49;100683.78;4352203;32;33048;-94
2021/12/13 08:15:14;;;;;;;15.98;9.07;;;;;;;3.88;61.08;100677.66;4376355;32;31792;-95
2021/12/13 08:18:00;;;;;;;14.23;8.48;;;;;;;4.25;59.64;100671.44;4321971;33;32728;-94
2021/12/13 08:21:00;;;;;;;17.50;9.48;;;;;;;4.13;60.46;100687.19;4345043;33;33106;-93
2021/12/13 08:23:56;;;;;;;15.85;8.68;;;;;;;4.08;60.35;100694.13;4349955;32;32302;-95
2021/12/13 08:26:41;;;;;;;18.58;8.10;;;;;;;4.04;61.01;100689.81;4405415;32;32636;-94
2021/12/13 08:29:35;;;;;;;22.70;9.70;;;;;;;4.19;60.54;100691.50;4382726;32;32838;-96
2021/12/13 08:32:23;;;;;;;20.15;8.95;;;;;;;4.56;59.25;100697.47;4362351;32;34140;-96
2021/12/13 08:35:15;;;;;;;19.00;9.73;;;;;;;4.46;59.92;100695.75;4342476;33;32369;-96
2021/12/13 08:37:59;;;;;;;20.52;8.80;;;;;;;4.98;58.01;100690.22;4381385;32;32689;-94
2021/12/13 08:40:50;;;;;;;16.98;9.35;;;;;;;4.94;58.67;100683.25;4362617;32;32825;-94
2021/12/13 08:43:44;;;;;;;17.33;9.07;;;;;;;5.05;58.44;100689.31;4396372;32;33317;-95
2021/12/13 08:47:00;;;;;;;22.20;9.60;;;;;;;5.24;57.34;100690.91;4406748;32;32192;-87
2021/12/13 08:49:46;;;;;;;17.05;8.65;;;;;;;5.42;56.72;100702.13;4384525;32;34702;-85
2021/12/13 08:52:13;;;;;;;17.33;8.50;;;;;;;5.19;57.34;100697.94;4400230;32;35509;-84
2021/12/13 08:54:53;;;;;;;21.37;9.50;;;;;;;4.99;58.41;100702.44;4399202;32;34661;-88
2021/12/13 08:57:36;;;;;;;15.70;7.93;;;;;;;5.13;58.01;100700.59;4409836;32;34981;-91
2021/12/13 09:00:21;;;;;;;17.08;8.38;;;;;;;5.88;55.27;100703.41;4409867;32;33652;-91
2021/12/13 09:03:34;;;;;;;14.32;8.88;;;;;;;5.31;56.67;100684.72;4336679;33;33256;-92
2021/12/13 09:06:17;;;;;;;21.30;8.88;;;;;;;5.74;55.73;100693.97;4364417;32;33250;-92
2021/12/13 09:09:14;;;;;;;16.75;7.85;;;;;;;6.03;54.92;100691.06;4354662;32;32250;-91
2021/12/13 09:11:59;;;;;;;20.35;8.95;;;;;;;5.63;55.66;100692.31;4353637;32;32689;-91
2021/12/13 09:14:58;;;;;;;17.33;6.97;;;;;;;5.96;55.28;100689.41;4355144;32;32870;-91
2021/12/13 09:17:38;;;;;;;15.00;8.10;;;;;;;5.87;55.77;100695.59;4341801;33;34489;-90
2021/12/13 09:20:31;;;;;;;19.08;8.93;;;;;;;6.16;54.60;100690.06;4354400;32;32741;-90
2021/12/13 09:23:18;;;;;;;16.40;8.15;;;;;;;6.48;53.35;100694.06;4356637;32;33263;-90
2021/12/13 09:26:25;;;;;;;17.95;9.07;;;;;;;6.74;52.24;100691.06;4378512;32;33391;-89
2021/12/13 09:29:06;;;;;;;17.52;8.68;;;;;;;6.41;53.44;100699.38;4380562;32;33632;-90
2021/12/13 09:31:56;;;;;;;11.67;7.10;;;;;;;6.52;53.30;100698.37;4382584;32;33284;-91
2021/12/13 09:34:45;;;;;;;15.45;8.52;;;;;;;6.86;51.28;100688.28;4374436;32;33293;-89
2021/12/13 09:37:15;;;;;;;13.00;7.32;;;;;;;7.35;50.31;100687.53;4370749;32;32498;-91
2021/12/13 09:40:03;;;;;;;14.18;7.20;;;;;;;7.29;51.10;100685.00;4383443;32;32210;-91
2021/12/13 09:43:05;;;;;;;14.50;7.53;;;;;;;7.10;50.49;100679.19;4368477;32;32306;-91
2021/12/13 09:45:47;;;;;;;15.75;8.73;;;;;;;6.99;51.94;100675.88;4368013;32;32896;-92
2021/12/13 09:48:32;;;;;;;17.45;7.95;;;;;;;7.43;50.10;100672.50;4352698;32;34227;-90
2021/12/13 09:51:28;;;;;;;17.33;8.30;;;;;;;7.17;50.67;100676.44;4384307;32;33144;-94
2021/12/13 09:53:59;;;;;;;19.20;7.80;;;;;;;7.51;49.98;100670.63;4369642;32;33138;-90
2021/12/13 09:56:50;;;;;;;18.20;7.70;;;;;;;7.33;50.48;100668.31;4389720;32;33639;-91
2021/12/13 09:59:29;;;;;;;19.70;8.45;;;;;;;7.49;50.85;100669.78;4392993;32;32870;-91
2021/12/13 10:02:19;;;;;;;18.75;8.93;;;;;;;7.36;50.14;100663.87;4386298;32;33677;-90
2021/12/13 10:04:49;;;;;;;12.85;7.12;;;;;;;7.13;50.98;100663.38;4378252;32;32072;-90
2021/12/13 10:07:28;;;;;;;17.70;8.75;;;;;;;7.19;51.13;100652.78;4392970;32;33155;-90
2021/12/13 10:10:02;;;;;;;15.98;7.60;;;;;;;7.43;50.25;100659.38;4377056;32;33051;-90
2021/12/13 10:12:35;;;;;;;17.05;8.38;;;;;;;7.10;51.15;100659.03;4390287;32;33041;-91
2021/12/13 10:15:10;;;;;;;17.45;8.00;;;;;;;7.29;51.06;100661.38;4352421;32;32454;-90
2021/12/13 10:17:43;;;;;;;17.83;9.60;;;;;;;7.29;50.55;100659.59;4389687;32;33243;-90
2021/12/13 10:20:19;;;;;;;21.02;8.10;;;;;;;7.33;50.30;100656.03;4377486;32;32657;-90
2021/12/13 10:22:48;;;;;;;17.60;8.77;;;;;;;7.56;50.22;100657.41;4377506;32;32821;-90
2021/12/13 10:25:44;;;;;;;15.77;8.73;;;;;;;7.40;50.65;100654.16;4377338;32;33070;-90
2021/12/13 10:28:18;;;;;;;19.73;8.85;;;;;;;7.85;49.27;100656.88;4364358;32;32353;-91
2021/12/13 10:31:21;;;;;;;18.50;7.07;;;;;;;7.84;49.25;100650.75;4389272;32;32612;-91
2021/12/13 10:34:34;;;;;;;16.02;8.20;;;;;;;7.87;49.07;100647.19;4392354;32;33035;-90
2021/12/13 10:37:34;;;;;;;18.40;9.20;;;;;;;7.53;49.37;100654.81;4380493;32;32884;-89
2021/12/13 10:40:16;;;;;;;15.10;8.48;;;;;;;7.22;51.73;100652.72;4342940;32;33218;-91
2021/12/13 10:43:15;;;;;;;14.35;7.95;;;;;;;7.65;50.03;100641.47;4369365;32;33182;-91
2021/12/13 10:45:59;;;;;;;17.73;8.90;;;;;;;8.25;48.12;100646.41;4373193;32;33724;-91
2021/12/13 10:48:55;;;;;;;18.73;7.82;;;;;;;8.22;48.12;100643.87;4359553;32;32245;-90
2021/12/13 10:51:55;;;;;;;16.87;7.95;;;;;;;7.84;49.64;100636.75;4365854;32;32695;-91
2021/12/13 10:54:34;;;;;;;15.63;8.32;;;;;;;7.98;48.15;100639.12;4387823;32;32704;-92
2021/12/13 10:57:11;;;;;;;18.58;8.05;;;;;;;7.73;49.18;100641.31;4384496;32;34152;-91
2021/12/13 11:00:12;;;;;;;13.43;7.10;;;;;;;8.15;47.29;100634.34;4360924;32;32138;-91
2021/12/13 11:02:58;;;;;;;15.57;6.95;;;;;;;8.17;46.84;100635.22;4375587;32;33056;-92
2021/12/13 11:05:56;;;;;;;12.45;6.87;;;;;;;8.33;47.18;100633.97;4375947;32;33976;-90
2021/12/13 11:08:41;;;;;;;15.13;7.12;;;;;;;8.15;47.15;100637.00;4360968;32;33675;-90
2021/12/13 11:11:41;;;;;;;14.13;7.72;;;;;;;8.04;46.77;100634.59;4393146;32;33744;-91
2021/12/13 11:14:23;;;;;;;13.65;8.05;;;;;;;8.41;46.17;100629.47;4420001;32;32795;-92
2021/12/13 11:17:18;;;;;;;15.15;8.07;;;;;;;8.28;46.87;100627.09;4392861;32;32504;-92
2021/12/13 11:20:15;;;;;;;18.85;8.57;;;;;;;8.59;46.07;100624.66;4392128;32;34326;-92
2021/12/13 11:23:13;;;;;;;16.33;8.98;;;;;;;8.21;48.37;100635.12;4368351;32;34364;-92
2021/12/13 11:26:08;;;;;;;18.15;9.02;;;;;;;8.25;47.59;100627.13;4346492;33;33023;-92
2021/12/13 11:29:00;;;;;;;14.98;8.80;;;;;;;8.04;48.76;100638.97;4360435;32;32584;-91
2021/12/13 11:31:52;;;;;;;18.62;9.20;;;;;;;8.31;48.44;100629.63;4373131;32;33199;-91
2021/12/13 11:35:05;;;;;;;20.98;9.60;;;;;;;8.69;46.87;100628.84;4344398;33;32141;-91
2021/12/13 11:38:00;;;;;;;18.20;9.98;;;;;;;8.18;48.45;100636.94;4383501;32;33068;-93
2021/12/13 11:41:32;;;;;;;15.90;8.77;;;;;;;8.23;48.70;100629.81;4384622;32;33330;-92
2021/12/13 11:44:27;;;;;;;16.25;9.88;;;;;;;8.19;48.76;100618.47;4387784;32;33028;-92
2021/12/13 11:47:40;;;;;;;23.38;10.70;;;;;;;7.90;49.24;100626.97;4347462;32;33451;-91
2021/12/13 11:51:08;;;;;;;21.23;10.50;;;;;;;8.11;49.05;100633.53;4333855;33;33124;-91
2021/12/13 11:54:43;;;;;;;17.75;9.20;;;;;;;7.78;50.80;100632.44;4347155;32;34463;-91
2021/12/13 11:57:55;;;;;;;22.13;9.98;;;;;;;7.98;50.00;100624.19;4359873;32;32787;-93
2021/12/13 12:01:24;;;;;;;21.00;9.65;;;;;;;7.89;49.63;100619.97;4358737;32;33175;-91
2021/12/13 12:04:56;;;;;;;21.35;9.32;;;;;;;7.46;51.35;100626.94;4376757;32;32397;-90
2021/12/13 12:08:14;;;;;;;23.15;10.40;;;;;;;7.25;52.18;100622.91;4361581;32;34355;-93
2021/12/13 12:11:34;;;;;;;19.33;10.60;;;;;;;7.18;52.38;100624.78;4364292;32;33637;-88
2021/12/13 12:14:14;;;;;;;19.60;9.05;;;;;;;7.73;51.08;100623.78;4405085;32;32265;-90
2021/12/13 12:17:06;;;;;;;18.75;8.63;;;;;;;7.93;49.94;100621.66;4396817;32;32551;-90
2021/12/13 12:19:46;;;;;;;17.62;8.18;;;;;;;7.72;50.24;100622.06;4377186;32;34059;-90
2021/12/13 12:22:22;;;;;;;18.40;8.57;;;;;;;7.71;49.81;100625.59;4389736;32;32854;-89
2021/12/13 12:25:03;;;;;;;18.85;9.00;;;;;;;7.77;49.75;100630.72;4348431;32;32108;-92
2021/12/13 12:28:06;;;;;;;18.17;7.90;;;;;;;7.60;50.53;100627.56;4344896;33;33568;-91
2021/12/13 12:30:57;;;;;;;14.82;7.68;;;;;;;7.58;50.52;100624.94;4369551;32;34007;-90
2021/12/13 12:33:43;;;;;;;12.53;7.13;;;;;;;7.82;49.72;100634.13;4393708;32;33004;-90
2021/12/13 12:36:54;;;;;;;15.35;7.12;;;;;;;7.52;50.26;100634.72;4390338;32;32573;-90
2021/12/13 12:39:38;;;;;;;16.58;7.90;;;;;;;7.33;50.95;100631.53;4381029;32;33392;-90
2021/12/13 12:42:38;;;;;;;11.68;7.40;;;;;;;7.86;49.63;100620.03;4373570;32;32946;-91
2021/12/13 12:45:41;;;;;;;15.88;7.22;;;;;;;7.76;50.16;100628.13;4369966;32;32791;-88
2021/12/13 12:48:35;;;;;;;15.57;7.82;;;;;;;7.51;51.25;100628.59;4358944;32;32788;-89
2021/12/13 12:51:40;;;;;;;15.55;8.52;;;;;;;7.82;50.33;100622.75;4340746;33;32649;-89
2021/12/13 12:54:28;;;;;;;17.40;9.02;;;;;;;7.78;50.45;100621.94;4349481;32;32818;-90
2021/12/13 12:56:59;;;;;;;21.87;8.50;;;;;;;7.69;50.50;100622.09;4353164;32;33187;-90
2021/12/13 12:59:30;;;;;;;21.27;9.40;;;;;;;7.84;50.09;100616.56;4334768;33;32250;-88
2021/12/13 13:02:13;;;;;;;20.88;9.48;;;;;;;7.42;51.49;100621.72;4355351;32;33097;-91
2021/12/13 13:04:53;;;;;;;19.42;9.30;;;;;;;7.30;51.36;100621.06;4347836;32;33213;-90
2021/12/13 13:07:42;;;;;;;14.60;9.00;;;;;;;7.80;50.27;100622.78;4348884;32;32926;-90
2021/12/13 13:13:25;;;;;;;14.77;8.45;;;;;;;7.43;51.26;100631.34;4349134;32;32654;-90
2021/12/13 13:15:53;;;;;;;17.10;8.82;;;;;;;6.89;53.34;100633.13;4361200;32;34608;-90
2021/12/13 13:18:39;;;;;;;18.30;8.93;;;;;;;7.11;52.34;100638.88;4342360;33;33528;-90
2021/12/13 13:21:08;;;;;;;17.98;9.00;;;;;;;7.37;51.83;100644.59;4349069;32;32801;-90
2021/12/13 13:23:53;;;;;;;18.23;9.13;;;;;;;7.36;51.85;100647.25;4354997;32;33827;-90
2021/12/13 13:26:34;;;;;;;13.18;7.95;;;;;;;7.34;51.73;100652.50;4349522;32;33390;-90
2021/12/13 13:29:07;;;;;;;22.15;9.38;;;;;;;7.72;50.57;100648.34;4352978;32;33163;-90
2021/12/13 13:31:57;;;;;;;13.00;7.85;;;;;;;7.64;50.56;100653.75;4346261;32;32590;-90
2021/12/13 13:34:58;;;;;;;18.12;8.80;;;;;;;7.17;51.86;100659.81;4363113;32;33080;-89
2021/12/13 13:37:42;;;;;;;15.13;8.38;;;;;;;6.91;52.92;100668.09;4377143;32;34080;-91
2021/12/13 13:45:29;;;;;;;21.08;9.43;;;;;;;7.04;52.54;100671.41;4348372;33;34678;-91
2021/12/13 13:48:34;;;;;;;17.83;8.60;;;;;;;6.54;53.91;100672.97;4340566;33;32315;-91
2021/12/13 13:51:17;;;;;;;17.98;8.45;;;;;;;7.17;51.83;100670.31;4361446;32;33909;-90